createdAt,value
2022-08-26T00:02:19.337Z,24.64
2022-08-26T00:04:51.058Z,24.59
2022-08-26T00:07:21.262Z,24.50
2022-08-26T00:09:50.119Z,24.47
2022-08-26T00:12:35.767Z,24.67
2022-08-26T00:15:11.364Z,24.06
2022-08-26T00:17:42.945Z,24.36
2022-08-26T00:20:17.315Z,24.76
2022-08-26T00:22:47.498Z,24.87
2022-08-26T00:25:18.656Z,24.90
2022-08-26T00:27:48.506Z,24.73
2022-08-26T00:30:22.913Z,24.51
2022-08-26T00:32:53.191Z,24.65
2022-08-26T00:35:24.901Z,24.78
2022-08-26T00:37:57.610Z,24.72
2022-08-26T00:40:33.512Z,24.72
2022-08-26T00:43:09.549Z,24.73
2022-08-26T00:45:47.935Z,24.57
2022-08-26T00:48:23.716Z,24.45
2022-08-26T00:51:01.990Z,24.52
2022-08-26T00:53:39.154Z,24.53
2022-08-26T00:56:20.153Z,24.64
2022-08-26T00:58:52.187Z,24.55
2022-08-26T01:01:23.087Z,24.53
2022-08-26T01:03:53.271Z,24.54
2022-08-26T01:06:26.540Z,24.64
2022-08-26T01:08:56.070Z,24.63
2022-08-26T01:11:26.571Z,24.50
2022-08-26T01:14:00.660Z,24.73
2022-08-26T01:16:33.599Z,24.69
2022-08-26T01:19:11.572Z,24.63
2022-08-26T01:21:50.831Z,24.38
2022-08-26T01:24:21.891Z,24.47
2022-08-26T01:26:52.564Z,24.34
2022-08-26T01:29:22.438Z,24.51
2022-08-26T01:31:55.978Z,24.42
2022-08-26T01:34:28.463Z,24.38
2022-08-26T01:37:06.879Z,24.29
2022-08-26T01:39:38.985Z,24.33
2022-08-26T01:42:14.295Z,24.30
2022-08-26T01:44:47.340Z,24.34
2022-08-26T01:47:20.806Z,24.22
2022-08-26T01:49:54.171Z,24.57
2022-08-26T01:52:28.390Z,24.21
2022-08-26T01:55:00.973Z,24.10
2022-08-26T01:57:31.202Z,24.41
2022-08-26T02:00:05.217Z,24.66
2022-08-26T02:02:41.169Z,24.35
2022-08-26T02:05:26.124Z,24.46
2022-08-26T02:07:56.748Z,24.29
2022-08-26T02:10:26.692Z,24.32
2022-08-26T02:12:57.273Z,24.39
2022-08-26T02:15:29.024Z,24.24
2022-08-26T02:18:04.151Z,24.43
2022-08-26T02:20:34.074Z,24.28
2022-08-26T02:23:04.316Z,24.05
2022-08-26T02:25:45.115Z,24.15
2022-08-26T02:28:15.382Z,24.25
2022-08-26T02:30:44.440Z,24.40
2022-08-26T02:33:13.614Z,24.47
2022-08-26T02:35:42.359Z,24.40
2022-08-26T02:38:11.990Z,24.15
2022-08-26T02:40:44.104Z,24.37
2022-08-26T02:43:13.926Z,24.17
2022-08-26T02:45:46.251Z,24.26
2022-08-26T02:48:21.286Z,23.99
2022-08-26T02:50:51.104Z,24.03
2022-08-26T02:53:25.085Z,24.21
2022-08-26T02:55:55.720Z,24.10
2022-08-26T02:58:24.719Z,23.97
2022-08-26T03:00:53.837Z,23.74
2022-08-26T03:03:26.984Z,24.29
2022-08-26T03:05:59.857Z,24.09
2022-08-26T03:08:28.477Z,24.04
2022-08-26T03:10:59.232Z,24.18
2022-08-26T03:13:30.586Z,24.35
2022-08-26T03:16:02.441Z,24.38
2022-08-26T03:18:32.022Z,24.29
2022-08-26T03:21:05.489Z,24.35
2022-08-26T03:23:37.325Z,24.15
2022-08-26T03:26:10.961Z,24.13
2022-08-26T03:29:02.233Z,24.29
2022-08-26T03:31:30.254Z,24.32
2022-08-26T03:34:02.081Z,24.19
2022-08-26T03:36:33.438Z,24.15
2022-08-26T03:39:07.321Z,23.85
2022-08-26T03:41:41.394Z,23.78
2022-08-26T03:44:10.577Z,23.53
2022-08-26T03:46:42.726Z,23.99
2022-08-26T03:49:15.266Z,23.97
2022-08-26T03:51:44.280Z,23.93
2022-08-26T03:54:22.583Z,23.77
2022-08-26T03:56:52.944Z,23.76
2022-08-26T03:59:22.099Z,23.91
2022-08-26T04:01:51.894Z,23.66
2022-08-26T04:04:22.876Z,24.04
2022-08-26T04:06:59.164Z,23.76
2022-08-26T04:09:29.070Z,23.42
2022-08-26T04:11:59.896Z,23.84
2022-08-26T04:14:32.928Z,23.94
2022-08-26T04:17:04.946Z,23.81
2022-08-26T04:19:34.824Z,23.89
2022-08-26T04:22:04.644Z,23.99
2022-08-26T04:24:33.337Z,23.84
2022-08-26T04:27:06.749Z,23.97
2022-08-26T04:29:37.205Z,23.79
2022-08-26T04:32:08.795Z,23.97
2022-08-26T04:34:48.181Z,23.80
2022-08-26T04:37:18.083Z,24.07
2022-08-26T04:39:53.002Z,23.86
2022-08-26T04:42:27.239Z,23.90
2022-08-26T04:44:56.750Z,23.97
2022-08-26T04:47:29.195Z,23.87
2022-08-26T04:50:01.927Z,23.69
2022-08-26T04:52:32.818Z,23.82
2022-08-26T04:55:01.691Z,23.79
2022-08-26T04:57:32.029Z,24.00
2022-08-26T05:00:00.938Z,23.91
2022-08-26T05:02:31.681Z,23.81
2022-08-26T05:05:01.680Z,23.82
2022-08-26T05:07:31.496Z,23.76
2022-08-26T05:10:00.790Z,23.96
2022-08-26T05:12:31.826Z,24.04
2022-08-26T05:15:01.029Z,23.44
2022-08-26T05:17:31.144Z,24.10
2022-08-26T05:20:00.510Z,23.72
2022-08-26T05:22:29.804Z,24.10
2022-08-26T05:25:00.478Z,23.82
2022-08-26T05:27:29.637Z,23.48
2022-08-26T05:30:01.557Z,23.90
2022-08-26T05:32:31.848Z,23.97
2022-08-26T05:35:05.092Z,23.92
2022-08-26T05:37:39.359Z,23.74
2022-08-26T05:40:11.061Z,23.71
2022-08-26T05:42:40.989Z,23.72
2022-08-26T05:45:14.010Z,24.06
2022-08-26T05:47:48.864Z,23.79
2022-08-26T05:50:23.241Z,24.17
2022-08-26T05:52:55.400Z,24.15
2022-08-26T05:55:25.618Z,24.08
2022-08-26T05:57:55.167Z,24.09
2022-08-26T06:00:26.475Z,24.03
2022-08-26T06:05:41.101Z,24.04
2022-08-26T06:08:14.235Z,24.36
2022-08-26T06:10:52.673Z,24.32
2022-08-26T06:13:31.859Z,23.92
2022-08-26T06:24:51.921Z,24.49
2022-08-26T06:27:20.555Z,23.94
2022-08-26T06:29:50.411Z,24.02
2022-08-26T06:32:21.463Z,24.38
2022-08-26T06:34:51.319Z,24.39
2022-08-26T06:37:21.663Z,24.71
2022-08-26T06:39:51.354Z,24.46
2022-08-26T06:42:19.772Z,24.52
2022-08-26T06:44:49.823Z,24.66
2022-08-26T06:47:19.704Z,24.47
2022-08-26T06:49:48.327Z,24.63
2022-08-26T06:52:23.089Z,24.79
2022-08-26T06:54:54.426Z,24.75
2022-08-26T06:57:23.404Z,24.80
2022-08-26T06:59:52.660Z,24.75
2022-08-26T07:02:24.349Z,25.17
2022-08-26T07:04:57.524Z,24.68
2022-08-26T07:07:26.319Z,25.08
2022-08-26T07:09:56.955Z,25.05
2022-08-26T07:12:26.040Z,25.11
2022-08-26T07:14:55.301Z,24.92
2022-08-26T07:17:31.604Z,25.10
2022-08-26T07:20:07.257Z,24.50
2022-08-26T07:22:37.288Z,25.20
2022-08-26T07:25:08.266Z,25.08
2022-08-26T07:27:39.863Z,24.90
2022-08-26T07:30:14.924Z,24.84
2022-08-26T07:32:46.870Z,24.94
2022-08-26T07:35:16.267Z,24.91
2022-08-26T07:37:46.045Z,24.81
2022-08-26T07:40:16.324Z,24.84
2022-08-26T07:42:45.576Z,24.83
2022-08-26T07:45:14.609Z,24.99
2022-08-26T07:47:45.589Z,24.91
2022-08-26T07:50:14.116Z,25.04
2022-08-26T07:52:44.542Z,25.10
2022-08-26T07:55:13.991Z,25.19
2022-08-26T07:57:43.189Z,24.77
2022-08-26T08:00:18.409Z,25.01
2022-08-26T08:02:49.384Z,24.58
2022-08-26T08:05:22.993Z,24.98
2022-08-26T08:08:27.593Z,25.24
2022-08-26T08:10:52.811Z,25.11
2022-08-26T08:13:21.795Z,24.35
2022-08-26T08:15:50.945Z,25.17
2022-08-26T08:18:23.637Z,25.19
2022-08-26T08:21:04.659Z,25.14
2022-08-26T08:23:34.350Z,24.99
2022-08-26T08:26:07.272Z,25.04
2022-08-26T08:28:37.149Z,25.21
2022-08-26T08:31:07.265Z,25.40
2022-08-26T08:33:37.321Z,25.37
2022-08-26T08:36:09.273Z,25.52
2022-08-26T08:38:38.681Z,25.31
2022-08-26T08:41:07.773Z,25.54
2022-08-26T08:43:45.747Z,25.62
2022-08-26T08:46:19.830Z,25.73
2022-08-26T08:48:59.092Z,25.69
2022-08-26T08:51:40.620Z,25.66
2022-08-26T08:54:17.248Z,25.87
2022-08-26T08:56:54.737Z,25.72
2022-08-26T08:59:28.899Z,25.92
2022-08-26T09:02:08.323Z,25.77
2022-08-26T09:08:06.569Z,25.11
2022-08-26T09:10:39.740Z,25.76
2022-08-26T09:13:16.311Z,25.81
2022-08-26T09:16:01.929Z,26.10
2022-08-26T09:18:48.555Z,26.23
2022-08-26T09:21:20.219Z,26.21
2022-08-26T09:23:55.344Z,26.34
2022-08-26T09:26:30.646Z,26.53
2022-08-26T09:29:02.074Z,26.65
2022-08-26T09:31:32.785Z,26.66
2022-08-26T09:34:17.294Z,26.63
2022-08-26T09:36:48.966Z,27.00
2022-08-26T09:39:34.548Z,27.51
2022-08-26T09:42:11.126Z,27.11
2022-08-26T09:44:59.370Z,27.58
2022-08-26T09:47:31.788Z,27.86
2022-08-26T09:50:09.647Z,27.90
2022-08-26T09:52:42.820Z,27.84
2022-08-26T09:55:21.419Z,27.69
2022-08-26T09:57:53.974Z,27.92
2022-08-26T10:00:32.972Z,27.89
2022-08-26T10:03:03.922Z,27.70
2022-08-26T10:05:42.304Z,27.38
2022-08-26T10:08:30.501Z,27.86
2022-08-26T10:11:05.006Z,27.74
2022-08-26T10:13:40.950Z,27.18
2022-08-26T10:16:17.711Z,26.68
2022-08-26T10:18:59.483Z,26.50
2022-08-26T10:21:34.870Z,26.75
2022-08-26T10:24:05.409Z,26.52
2022-08-26T10:26:43.754Z,26.37
2022-08-26T10:29:19.963Z,26.72
2022-08-26T10:31:55.038Z,26.63
2022-08-26T10:34:27.326Z,26.23
2022-08-26T10:37:14.614Z,26.49
2022-08-26T10:39:56.840Z,26.38
2022-08-26T10:42:35.163Z,26.52
2022-08-26T10:45:11.928Z,26.13
2022-08-26T10:47:51.415Z,26.25
2022-08-26T10:50:21.458Z,26.10
2022-08-26T10:53:01.958Z,26.15
2022-08-26T10:55:37.227Z,26.32
2022-08-26T10:58:39.684Z,25.75
2022-08-26T11:01:33.158Z,25.44
2022-08-26T11:04:15.059Z,25.62
2022-08-26T11:06:45.902Z,25.73
2022-08-26T11:09:46.155Z,25.56
2022-08-26T11:13:06.852Z,25.74
2022-08-26T11:16:09.243Z,25.84
2022-08-26T11:18:46.699Z,25.83
2022-08-26T11:22:02.118Z,25.39
2022-08-26T11:25:16.040Z,25.56
2022-08-26T11:27:57.505Z,25.65
2022-08-26T11:30:45.946Z,25.61
2022-08-26T11:34:00.084Z,26.01
2022-08-26T11:36:43.859Z,25.90
2022-08-26T11:39:25.325Z,25.72
2022-08-26T11:42:02.914Z,25.69
2022-08-26T11:44:49.670Z,25.79
2022-08-26T11:47:29.667Z,25.70
2022-08-26T11:50:15.265Z,26.22
2022-08-26T11:52:52.355Z,25.92
2022-08-26T11:55:23.384Z,26.16
2022-08-26T11:57:57.947Z,26.12
2022-08-26T12:00:33.390Z,25.94
2022-08-26T12:03:09.217Z,26.38
2022-08-26T12:05:45.432Z,26.10
2022-08-26T12:08:18.393Z,26.23
2022-08-26T12:10:46.599Z,26.19
2022-08-26T12:13:26.305Z,26.46
2022-08-26T12:15:57.271Z,26.57
2022-08-26T12:18:30.160Z,26.59
2022-08-26T12:21:02.162Z,26.41
2022-08-26T12:23:44.473Z,26.66
2022-08-26T12:26:22.461Z,26.72
2022-08-26T12:28:57.999Z,26.77
2022-08-26T12:31:31.486Z,26.63
2022-08-26T12:34:04.203Z,26.63
2022-08-26T12:36:37.958Z,26.88
2022-08-26T12:39:11.932Z,26.52
2022-08-26T12:41:47.996Z,26.93
2022-08-26T12:44:53.756Z,26.57
2022-08-26T12:47:35.207Z,26.51
2022-08-26T12:50:19.142Z,26.33
2022-08-26T12:53:00.087Z,25.99
2022-08-26T12:55:39.754Z,25.74
2022-08-26T12:58:25.468Z,25.87
2022-08-26T13:00:56.016Z,25.99
2022-08-26T13:03:46.430Z,26.07
2022-08-26T13:06:35.956Z,26.25
2022-08-26T13:09:26.614Z,25.85
2022-08-26T13:12:02.133Z,25.80
2022-08-26T13:14:31.106Z,25.78
2022-08-26T13:17:00.995Z,26.17
2022-08-26T13:19:31.982Z,26.11
2022-08-26T13:22:02.484Z,26.38
2022-08-26T13:24:35.455Z,26.37
2022-08-26T13:27:05.888Z,26.41
2022-08-26T13:29:34.133Z,26.35
2022-08-26T13:32:06.426Z,26.60
2022-08-26T13:34:36.382Z,26.25
2022-08-26T13:37:04.714Z,26.56
2022-08-26T13:39:33.777Z,26.55
2022-08-26T13:42:02.102Z,26.43
2022-08-26T13:44:30.695Z,26.29
2022-08-26T13:46:59.770Z,26.26
2022-08-26T13:49:29.718Z,26.29
2022-08-26T13:51:58.015Z,26.26
2022-08-26T13:54:26.522Z,25.54
2022-08-26T13:56:54.833Z,26.51
2022-08-26T13:59:23.187Z,25.91
2022-08-26T14:01:51.589Z,26.07
2022-08-26T14:04:26.989Z,25.97
2022-08-26T14:06:57.357Z,25.75
2022-08-26T14:09:25.734Z,26.20
2022-08-26T14:11:55.041Z,26.17
2022-08-26T14:14:25.087Z,26.19
2022-08-26T14:16:59.410Z,26.22
2022-08-26T14:19:29.983Z,26.13
2022-08-26T14:22:01.671Z,25.96
2022-08-26T14:24:30.537Z,26.23
2022-08-26T14:26:59.449Z,26.41
2022-08-26T14:29:28.285Z,26.29
2022-08-26T14:31:59.602Z,26.12
2022-08-26T14:34:28.251Z,25.59
2022-08-26T14:36:56.838Z,25.59
2022-08-26T14:39:26.999Z,25.25
2022-08-26T14:41:57.603Z,25.35
2022-08-26T14:44:29.470Z,25.47
2022-08-26T14:47:01.031Z,25.30
2022-08-26T14:49:32.405Z,25.29
2022-08-26T14:52:00.654Z,25.05
2022-08-26T14:54:29.678Z,25.39
2022-08-26T14:57:04.991Z,25.33
2022-08-26T14:59:34.803Z,25.61
2022-08-26T15:02:06.416Z,25.30
2022-08-26T15:04:35.749Z,25.16
2022-08-26T15:07:05.645Z,25.24
2022-08-26T15:09:45.541Z,25.39
2022-08-26T15:12:19.820Z,25.05
2022-08-26T15:14:48.316Z,25.63
2022-08-26T15:17:16.714Z,25.68
2022-08-26T15:19:45.129Z,25.94
2022-08-26T15:22:13.494Z,25.85
2022-08-26T15:24:43.251Z,26.29
2022-08-26T15:27:12.355Z,25.83
2022-08-26T15:29:40.706Z,26.12
2022-08-26T15:32:09.365Z,26.28
2022-08-26T15:34:37.830Z,25.60
2022-08-26T15:37:06.787Z,25.98
2022-08-26T15:39:35.922Z,26.26
2022-08-26T15:42:06.225Z,26.28
2022-08-26T15:44:36.651Z,26.53
2022-08-26T15:47:05.289Z,26.77
2022-08-26T15:49:33.539Z,26.84
2022-08-26T15:52:05.171Z,26.93
2022-08-26T15:54:34.440Z,26.79
2022-08-26T15:57:04.680Z,27.09
2022-08-26T15:59:35.937Z,26.69
2022-08-26T16:02:05.673Z,27.15
2022-08-26T16:04:33.872Z,26.87
2022-08-26T16:07:02.062Z,26.60
2022-08-26T16:09:30.689Z,26.86
2022-08-26T16:11:59.399Z,26.11
2022-08-26T16:14:28.256Z,26.69
2022-08-26T16:16:58.067Z,26.96
2022-08-26T16:19:26.202Z,26.61
2022-08-26T16:21:54.322Z,26.60
2022-08-26T16:24:28.420Z,26.61
2022-08-26T16:26:58.458Z,26.74
2022-08-26T16:29:26.570Z,26.53
2022-08-26T16:31:55.009Z,26.45
2022-08-26T16:34:24.639Z,26.40
2022-08-26T16:36:53.427Z,26.45
2022-08-26T16:39:21.744Z,26.46
2022-08-26T16:41:50.412Z,25.78
2022-08-26T16:44:19.463Z,26.23
2022-08-26T16:46:48.017Z,26.27
2022-08-26T16:49:16.463Z,25.64
2022-08-26T16:51:46.762Z,26.08
2022-08-26T16:54:15.008Z,25.55
2022-08-26T16:56:43.579Z,25.23
2022-08-26T16:59:12.226Z,25.41
2022-08-26T17:01:41.933Z,25.40
2022-08-26T17:04:10.294Z,25.60
2022-08-26T17:06:38.656Z,25.44
2022-08-26T17:09:09.414Z,25.79
2022-08-26T17:11:37.553Z,25.44
2022-08-26T17:14:06.439Z,25.37
2022-08-26T17:16:34.690Z,25.29
2022-08-26T17:19:04.428Z,25.30
2022-08-26T17:21:34.287Z,25.49
2022-08-26T17:24:02.809Z,25.02
2022-08-26T17:26:32.612Z,25.19
2022-08-26T17:29:00.964Z,25.08
2022-08-26T17:31:29.082Z,25.09
2022-08-26T17:33:57.547Z,25.01
2022-08-26T17:36:27.638Z,24.78
2022-08-26T17:38:57.638Z,25.06
2022-08-26T17:41:26.519Z,24.63
2022-08-26T17:43:56.136Z,24.74
2022-08-26T17:46:25.486Z,24.89
2022-08-26T17:48:53.731Z,24.91
2022-08-26T17:51:23.391Z,24.52
2022-08-26T17:53:52.946Z,24.57
2022-08-26T17:56:25.388Z,24.13
2022-08-26T17:58:57.585Z,24.03
2022-08-26T18:01:30.797Z,24.17
2022-08-26T18:04:00.604Z,23.96
2022-08-26T18:06:31.266Z,24.24
2022-08-26T18:09:00.924Z,23.70
2022-08-26T18:11:31.145Z,23.78
2022-08-26T18:14:01.640Z,23.88
2022-08-26T18:16:33.600Z,23.77
2022-08-26T18:19:01.856Z,23.76
2022-08-26T18:21:30.072Z,23.64
2022-08-26T18:23:58.430Z,23.59
2022-08-26T18:26:30.072Z,23.59
2022-08-26T18:29:00.373Z,23.24
2022-08-26T18:31:29.441Z,23.10
2022-08-26T18:33:58.019Z,23.08
2022-08-26T18:36:29.762Z,22.97
2022-08-26T18:38:58.638Z,23.05
2022-08-26T18:41:30.019Z,22.68
2022-08-26T18:43:58.766Z,22.88
2022-08-26T18:46:29.220Z,22.41
2022-08-26T18:48:58.435Z,22.41
2022-08-26T18:51:30.608Z,22.62
2022-08-26T18:53:59.985Z,22.67
2022-08-26T18:56:29.040Z,22.70
2022-08-26T18:58:58.276Z,22.29
2022-08-26T19:01:29.446Z,22.47
2022-08-26T19:03:59.424Z,22.46
2022-08-26T19:06:32.678Z,22.64
2022-08-26T19:09:01.806Z,22.69
2022-08-26T19:11:32.371Z,22.52
2022-08-26T19:14:07.105Z,22.61
2022-08-26T19:16:38.679Z,22.60
2022-08-26T19:19:07.579Z,22.45
2022-08-26T19:21:38.209Z,22.47
2022-08-26T19:24:15.583Z,22.20
2022-08-26T19:26:45.542Z,22.05
2022-08-26T19:29:15.410Z,22.14
2022-08-26T19:31:45.340Z,22.02
2022-08-26T19:34:17.476Z,22.02
2022-08-26T19:36:49.249Z,22.27
2022-08-26T19:39:17.730Z,21.86
2022-08-26T19:41:46.245Z,21.91
2022-08-26T19:44:37.812Z,22.06
2022-08-26T19:47:09.720Z,21.79
2022-08-26T19:49:38.932Z,22.09
2022-08-26T19:52:08.998Z,22.15
2022-08-26T19:54:37.236Z,22.01
2022-08-26T19:57:06.328Z,21.98
2022-08-26T19:59:36.168Z,21.98
2022-08-26T20:02:10.511Z,21.80
2022-08-26T20:04:39.306Z,21.94
2022-08-26T20:07:07.782Z,21.93
2022-08-26T20:09:38.312Z,21.70
2022-08-26T20:12:08.465Z,21.74
2022-08-26T20:14:37.325Z,21.65
2022-08-26T20:17:07.532Z,21.62
2022-08-26T20:19:53.976Z,21.77
2022-08-26T20:22:23.176Z,21.65
2022-08-26T20:24:51.670Z,21.63
2022-08-26T20:27:22.148Z,21.63
2022-08-26T20:29:50.512Z,21.50
2022-08-26T20:32:21.615Z,21.69
2022-08-26T20:34:51.493Z,21.59
2022-08-26T20:37:21.664Z,21.63
2022-08-26T20:39:50.491Z,21.68
2022-08-26T20:42:20.128Z,21.65
2022-08-26T20:44:54.426Z,21.62
2022-08-26T20:47:24.850Z,21.59
2022-08-26T20:49:54.028Z,21.60
2022-08-26T20:52:22.451Z,21.62
2022-08-26T20:54:50.822Z,21.69
2022-08-26T20:57:19.135Z,21.77
2022-08-26T20:59:47.528Z,21.83
2022-08-26T21:02:15.857Z,21.79
2022-08-26T21:04:45.633Z,21.60
2022-08-26T21:07:13.955Z,21.77
2022-08-26T21:09:42.384Z,21.78
2022-08-26T21:12:11.974Z,21.78
2022-08-26T21:14:40.301Z,21.96
2022-08-26T21:17:08.565Z,22.10
2022-08-26T21:19:37.433Z,22.13
2022-08-26T21:22:07.453Z,22.21
2022-08-26T21:24:35.909Z,22.10
2022-08-26T21:27:07.017Z,21.98
2022-08-26T21:29:35.231Z,22.15
2022-08-26T21:32:04.075Z,22.21
2022-08-26T21:34:32.521Z,22.27
2022-08-26T21:37:00.875Z,22.24
2022-08-26T21:39:30.534Z,22.40
2022-08-26T21:41:59.304Z,22.27
2022-08-26T21:44:28.603Z,22.17
2022-08-26T21:46:56.856Z,22.14
2022-08-26T21:49:25.219Z,22.28
2022-08-26T21:51:55.171Z,22.34
2022-08-26T21:54:24.195Z,22.37
2022-08-26T21:56:54.472Z,22.34
2022-08-26T21:59:22.820Z,22.10
2022-08-26T22:01:52.183Z,22.15
2022-08-26T22:04:20.513Z,22.04
2022-08-26T22:06:52.727Z,22.26
2022-08-26T22:09:25.124Z,22.42
2022-08-26T22:11:56.835Z,22.35
2022-08-26T22:14:30.457Z,22.26
2022-08-26T22:17:00.511Z,22.33
2022-08-26T22:19:29.801Z,22.39
2022-08-26T22:21:58.908Z,22.42
2022-08-26T22:24:28.606Z,22.33
2022-08-26T22:26:58.891Z,22.53
2022-08-26T22:29:27.621Z,22.41
2022-08-26T22:31:57.214Z,22.24
2022-08-26T22:34:25.580Z,22.54
2022-08-26T22:36:54.018Z,22.27
2022-08-26T22:39:26.027Z,22.40
2022-08-26T22:41:56.741Z,22.42
2022-08-26T22:44:26.570Z,22.40
2022-08-26T22:46:56.005Z,22.34
2022-08-26T22:49:25.069Z,22.37
2022-08-26T22:51:53.821Z,22.44
2022-08-26T22:54:22.118Z,22.48
2022-08-26T22:56:50.433Z,22.46
2022-08-26T22:59:18.723Z,22.49
2022-08-26T23:01:48.662Z,22.45
2022-08-26T23:04:17.021Z,22.41
2022-08-26T23:06:47.495Z,22.48
2022-08-26T23:09:18.101Z,22.06
2022-08-26T23:11:48.492Z,22.04
2022-08-26T23:14:18.895Z,22.06
2022-08-26T23:16:48.778Z,21.64
2022-08-26T23:19:22.686Z,21.97
2022-08-26T23:21:51.822Z,21.88
2022-08-26T23:24:20.093Z,22.03
2022-08-26T23:26:48.801Z,21.98
2022-08-26T23:29:18.390Z,21.75
2022-08-26T23:31:48.320Z,21.70
2022-08-26T23:34:34.077Z,21.69
2022-08-26T23:37:02.438Z,21.69
2022-08-26T23:39:35.265Z,21.68
2022-08-26T23:42:03.956Z,21.51
2022-08-26T23:44:32.827Z,21.89
2022-08-26T23:47:04.797Z,21.28
2022-08-26T23:49:34.081Z,21.25
2022-08-26T23:52:19.940Z,21.71
2022-08-26T23:54:49.701Z,21.70
2022-08-26T23:57:20.196Z,21.55
2022-08-26T23:59:49.643Z,21.67
